sensor_id;sensor_type;location;lat;lon;timestamp;P1;durP1;ratioP1;P2;durP2;ratioP2
74177;SDS011;62540;48.456;-4.456;2023-06-14T00:00:37;9.50;;;6.00;;
74177;SDS011;62540;48.456;-4.456;2023-06-14T00:03:06;9.00;;;7.50;;
74177;SDS011;62540;48.456;-4.456;2023-06-14T00:05:42;9.25;;;7.50;;
74177;SDS011;62540;48.456;-4.456;2023-06-14T00:08:08;5.00;;;5.00;;
74177;SDS011;62540;48.456;-4.456;2023-06-14T00:10:37;6.25;;;6.00;;
74177;SDS011;62540;48.456;-4.456;2023-06-14T00:13:03;5.50;;;4.50;;
74177;SDS011;62540;48.456;-4.456;2023-06-14T00:15:30;8.00;;;5.00;;
74177;SDS011;62540;48.456;-4.456;2023-06-14T00:17:56;7.75;;;5.75;;
74177;SDS011;62540;48.456;-4.456;2023-06-14T00:20:27;5.25;;;5.00;;
74177;SDS011;62540;48.456;-4.456;2023-06-14T00:22:54;3.00;;;3.00;;
74177;SDS011;62540;48.456;-4.456;2023-06-14T00:25:22;5.00;;;4.75;;
74177;SDS011;62540;48.456;-4.456;2023-06-14T00:27:48;6.25;;;5.00;;
74177;SDS011;62540;48.456;-4.456;2023-06-14T00:30:14;7.50;;;6.50;;
74177;SDS011;62540;48.456;-4.456;2023-06-14T00:32:40;5.75;;;5.00;;
74177;SDS011;62540;48.456;-4.456;2023-06-14T00:35:07;5.25;;;4.00;;
74177;SDS011;62540;48.456;-4.456;2023-06-14T00:37:33;5.25;;;4.50;;
74177;SDS011;62540;48.456;-4.456;2023-06-14T00:39:58;7.00;;;6.00;;
74177;SDS011;62540;48.456;-4.456;2023-06-14T00:42:27;4.50;;;4.00;;
74177;SDS011;62540;48.456;-4.456;2023-06-14T00:44:54;5.25;;;3.50;;
74177;SDS011;62540;48.456;-4.456;2023-06-14T00:47:20;5.00;;;3.00;;
74177;SDS011;62540;48.456;-4.456;2023-06-14T00:49:46;3.00;;;2.50;;
74177;SDS011;62540;48.456;-4.456;2023-06-14T00:52:13;4.50;;;3.50;;
74177;SDS011;62540;48.456;-4.456;2023-06-14T00:54:39;3.75;;;3.00;;
74177;SDS011;62540;48.456;-4.456;2023-06-14T00:57:06;3.00;;;3.00;;
74177;SDS011;62540;48.456;-4.456;2023-06-14T00:59:32;4.50;;;4.00;;
74177;SDS011;62540;48.456;-4.456;2023-06-14T01:01:58;4.00;;;4.00;;
74177;SDS011;62540;48.456;-4.456;2023-06-14T01:04:23;6.50;;;5.00;;
74177;SDS011;62540;48.456;-4.456;2023-06-14T01:06:52;3.00;;;3.00;;
74177;SDS011;62540;48.456;-4.456;2023-06-14T01:09:43;5.00;;;4.00;;
74177;SDS011;62540;48.456;-4.456;2023-06-14T01:12:22;4.00;;;4.00;;
74177;SDS011;62540;48.456;-4.456;2023-06-14T01:14:55;5.00;;;3.50;;
74177;SDS011;62540;48.456;-4.456;2023-06-14T01:17:22;3.25;;;3.25;;
74177;SDS011;62540;48.456;-4.456;2023-06-14T01:19:48;4.00;;;4.00;;
74177;SDS011;62540;48.456;-4.456;2023-06-14T01:22:14;5.00;;;4.00;;
74177;SDS011;62540;48.456;-4.456;2023-06-14T01:24:39;3.25;;;3.25;;
74177;SDS011;62540;48.456;-4.456;2023-06-14T01:27:09;3.00;;;2.00;;
74177;SDS011;62540;48.456;-4.456;2023-06-14T01:29:37;2.75;;;2.75;;
74177;SDS011;62540;48.456;-4.456;2023-06-14T01:32:03;4.00;;;3.00;;
74177;SDS011;62540;48.456;-4.456;2023-06-14T01:34:29;3.00;;;3.00;;
74177;SDS011;62540;48.456;-4.456;2023-06-14T01:36:55;4.00;;;4.00;;
74177;SDS011;62540;48.456;-4.456;2023-06-14T01:39:21;2.50;;;2.50;;
74177;SDS011;62540;48.456;-4.456;2023-06-14T01:41:47;3.50;;;3.00;;
74177;SDS011;62540;48.456;-4.456;2023-06-14T01:44:15;3.50;;;3.00;;
74177;SDS011;62540;48.456;-4.456;2023-06-14T01:46:42;2.25;;;2.25;;
74177;SDS011;62540;48.456;-4.456;2023-06-14T01:49:10;3.50;;;2.75;;
74177;SDS011;62540;48.456;-4.456;2023-06-14T01:51:36;4.25;;;3.50;;
74177;SDS011;62540;48.456;-4.456;2023-06-14T01:54:01;5.00;;;4.00;;
74177;SDS011;62540;48.456;-4.456;2023-06-14T01:56:26;3.00;;;3.00;;
74177;SDS011;62540;48.456;-4.456;2023-06-14T01:58:52;5.00;;;4.00;;
74177;SDS011;62540;48.456;-4.456;2023-06-14T02:01:18;3.25;;;3.25;;
74177;SDS011;62540;48.456;-4.456;2023-06-14T02:03:46;5.00;;;4.00;;
74177;SDS011;62540;48.456;-4.456;2023-06-14T02:06:13;4.00;;;3.00;;
74177;SDS011;62540;48.456;-4.456;2023-06-14T02:08:38;5.25;;;3.00;;
74177;SDS011;62540;48.456;-4.456;2023-06-14T02:11:04;4.25;;;3.25;;
74177;SDS011;62540;48.456;-4.456;2023-06-14T02:13:29;4.25;;;3.25;;
74177;SDS011;62540;48.456;-4.456;2023-06-14T02:15:55;3.00;;;3.00;;
74177;SDS011;62540;48.456;-4.456;2023-06-14T02:18:20;2.25;;;2.00;;
74177;SDS011;62540;48.456;-4.456;2023-06-14T02:20:46;3.00;;;3.00;;
74177;SDS011;62540;48.456;-4.456;2023-06-14T02:23:12;4.00;;;4.00;;
74177;SDS011;62540;48.456;-4.456;2023-06-14T02:25:37;2.50;;;2.00;;
74177;SDS011;62540;48.456;-4.456;2023-06-14T02:28:04;3.00;;;2.00;;
74177;SDS011;62540;48.456;-4.456;2023-06-14T02:30:30;4.00;;;3.50;;
74177;SDS011;62540;48.456;-4.456;2023-06-14T02:32:56;3.75;;;2.50;;
74177;SDS011;62540;48.456;-4.456;2023-06-14T02:35:21;4.00;;;3.50;;
74177;SDS011;62540;48.456;-4.456;2023-06-14T02:37:49;5.00;;;4.00;;
74177;SDS011;62540;48.456;-4.456;2023-06-14T02:40:16;3.25;;;2.75;;
74177;SDS011;62540;48.456;-4.456;2023-06-14T02:42:41;3.25;;;3.25;;
74177;SDS011;62540;48.456;-4.456;2023-06-14T02:45:07;3.75;;;2.50;;
74177;SDS011;62540;48.456;-4.456;2023-06-14T02:47:33;5.00;;;4.00;;
74177;SDS011;62540;48.456;-4.456;2023-06-14T02:49:58;3.25;;;3.25;;
74177;SDS011;62540;48.456;-4.456;2023-06-14T02:52:24;3.75;;;3.00;;
74177;SDS011;62540;48.456;-4.456;2023-06-14T02:54:50;2.50;;;2.50;;
74177;SDS011;62540;48.456;-4.456;2023-06-14T02:57:15;3.75;;;3.75;;
74177;SDS011;62540;48.456;-4.456;2023-06-14T02:59:41;6.00;;;2.75;;
74177;SDS011;62540;48.456;-4.456;2023-06-14T03:02:06;5.75;;;2.00;;
74177;SDS011;62540;48.456;-4.456;2023-06-14T03:04:32;3.00;;;3.00;;
74177;SDS011;62540;48.456;-4.456;2023-06-14T03:07:02;4.00;;;3.00;;
74177;SDS011;62540;48.456;-4.456;2023-06-14T03:09:27;3.00;;;3.00;;
74177;SDS011;62540;48.456;-4.456;2023-06-14T03:11:53;2.00;;;2.00;;
74177;SDS011;62540;48.456;-4.456;2023-06-14T03:14:19;2.25;;;2.25;;
74177;SDS011;62540;48.456;-4.456;2023-06-14T03:16:46;3.50;;;2.00;;
74177;SDS011;62540;48.456;-4.456;2023-06-14T03:19:11;3.75;;;2.25;;
74177;SDS011;62540;48.456;-4.456;2023-06-14T03:21:37;3.00;;;3.00;;
74177;SDS011;62540;48.456;-4.456;2023-06-14T03:24:03;5.00;;;3.00;;
74177;SDS011;62540;48.456;-4.456;2023-06-14T03:26:29;3.00;;;2.00;;
74177;SDS011;62540;48.456;-4.456;2023-06-14T03:28:55;3.00;;;3.00;;
74177;SDS011;62540;48.456;-4.456;2023-06-14T03:31:20;4.00;;;2.00;;
74177;SDS011;62540;48.456;-4.456;2023-06-14T03:33:46;3.00;;;3.00;;
74177;SDS011;62540;48.456;-4.456;2023-06-14T03:36:11;4.00;;;3.25;;
74177;SDS011;62540;48.456;-4.456;2023-06-14T03:38:36;3.25;;;3.00;;
74177;SDS011;62540;48.456;-4.456;2023-06-14T03:41:02;4.25;;;4.00;;
74177;SDS011;62540;48.456;-4.456;2023-06-14T03:43:27;2.50;;;2.50;;
74177;SDS011;62540;48.456;-4.456;2023-06-14T03:45:55;2.00;;;1.00;;
74177;SDS011;62540;48.456;-4.456;2023-06-14T03:48:20;3.25;;;3.25;;
74177;SDS011;62540;48.456;-4.456;2023-06-14T03:50:45;3.00;;;3.00;;
74177;SDS011;62540;48.456;-4.456;2023-06-14T03:53:11;3.00;;;2.00;;
74177;SDS011;62540;48.456;-4.456;2023-06-14T03:55:36;2.00;;;2.00;;
74177;SDS011;62540;48.456;-4.456;2023-06-14T03:58:02;4.00;;;4.00;;
74177;SDS011;62540;48.456;-4.456;2023-06-14T04:00:28;2.25;;;2.25;;
74177;SDS011;62540;48.456;-4.456;2023-06-14T04:02:54;4.00;;;2.50;;
74177;SDS011;62540;48.456;-4.456;2023-06-14T04:05:19;5.00;;;4.25;;
74177;SDS011;62540;48.456;-4.456;2023-06-14T04:07:45;4.75;;;3.00;;
74177;SDS011;62540;48.456;-4.456;2023-06-14T04:10:13;3.00;;;2.00;;
74177;SDS011;62540;48.456;-4.456;2023-06-14T04:12:40;3.00;;;3.00;;
74177;SDS011;62540;48.456;-4.456;2023-06-14T04:15:06;3.00;;;2.50;;
74177;SDS011;62540;48.456;-4.456;2023-06-14T04:17:33;3.00;;;2.00;;
74177;SDS011;62540;48.456;-4.456;2023-06-14T04:19:59;3.25;;;3.00;;
74177;SDS011;62540;48.456;-4.456;2023-06-14T04:22:25;3.25;;;3.25;;
74177;SDS011;62540;48.456;-4.456;2023-06-14T04:24:53;4.00;;;3.50;;
74177;SDS011;62540;48.456;-4.456;2023-06-14T04:27:22;3.00;;;2.00;;
74177;SDS011;62540;48.456;-4.456;2023-06-14T04:29:54;1.00;;;1.00;;
74177;SDS011;62540;48.456;-4.456;2023-06-14T04:32:24;2.75;;;2.00;;
74177;SDS011;62540;48.456;-4.456;2023-06-14T04:34:51;3.75;;;2.00;;
74177;SDS011;62540;48.456;-4.456;2023-06-14T04:37:24;1.50;;;1.50;;
74177;SDS011;62540;48.456;-4.456;2023-06-14T04:39:53;4.00;;;3.00;;
74177;SDS011;62540;48.456;-4.456;2023-06-14T04:42:20;2.75;;;2.75;;
74177;SDS011;62540;48.456;-4.456;2023-06-14T04:44:49;3.00;;;3.00;;
74177;SDS011;62540;48.456;-4.456;2023-06-14T04:47:15;3.75;;;3.50;;
74177;SDS011;62540;48.456;-4.456;2023-06-14T04:49:41;4.25;;;3.50;;
74177;SDS011;62540;48.456;-4.456;2023-06-14T04:52:07;6.75;;;3.00;;
74177;SDS011;62540;48.456;-4.456;2023-06-14T04:54:35;3.00;;;3.00;;
74177;SDS011;62540;48.456;-4.456;2023-06-14T04:57:02;2.75;;;2.75;;
74177;SDS011;62540;48.456;-4.456;2023-06-14T04:59:29;3.25;;;3.00;;
74177;SDS011;62540;48.456;-4.456;2023-06-14T05:01:58;2.75;;;2.75;;
74177;SDS011;62540;48.456;-4.456;2023-06-14T05:04:25;2.50;;;1.75;;
74177;SDS011;62540;48.456;-4.456;2023-06-14T05:06:51;3.50;;;2.50;;
74177;SDS011;62540;48.456;-4.456;2023-06-14T05:09:19;3.25;;;3.00;;
74177;SDS011;62540;48.456;-4.456;2023-06-14T05:11:45;3.00;;;2.00;;
74177;SDS011;62540;48.456;-4.456;2023-06-14T05:14:11;3.50;;;2.50;;
74177;SDS011;62540;48.456;-4.456;2023-06-14T05:16:36;4.00;;;3.00;;
74177;SDS011;62540;48.456;-4.456;2023-06-14T05:19:02;3.00;;;3.00;;
74177;SDS011;62540;48.456;-4.456;2023-06-14T05:21:29;3.00;;;2.50;;
74177;SDS011;62540;48.456;-4.456;2023-06-14T05:23:55;2.00;;;2.00;;
74177;SDS011;62540;48.456;-4.456;2023-06-14T05:26:21;4.00;;;4.00;;
74177;SDS011;62540;48.456;-4.456;2023-06-14T05:28:48;3.00;;;3.00;;
74177;SDS011;62540;48.456;-4.456;2023-06-14T05:31:14;3.00;;;3.00;;
74177;SDS011;62540;48.456;-4.456;2023-06-14T05:33:40;3.25;;;2.50;;
74177;SDS011;62540;48.456;-4.456;2023-06-14T05:36:05;2.75;;;2.50;;
74177;SDS011;62540;48.456;-4.456;2023-06-14T05:38:31;2.50;;;2.00;;
74177;SDS011;62540;48.456;-4.456;2023-06-14T05:40:56;3.00;;;2.00;;
74177;SDS011;62540;48.456;-4.456;2023-06-14T05:43:21;4.00;;;3.25;;
74177;SDS011;62540;48.456;-4.456;2023-06-14T05:45:47;4.00;;;3.75;;
74177;SDS011;62540;48.456;-4.456;2023-06-14T05:48:12;6.00;;;3.25;;
74177;SDS011;62540;48.456;-4.456;2023-06-14T05:50:37;3.75;;;3.75;;
74177;SDS011;62540;48.456;-4.456;2023-06-14T05:53:03;2.75;;;2.75;;
74177;SDS011;62540;48.456;-4.456;2023-06-14T05:55:28;3.00;;;3.00;;
74177;SDS011;62540;48.456;-4.456;2023-06-14T05:57:53;3.25;;;2.50;;
74177;SDS011;62540;48.456;-4.456;2023-06-14T06:00:19;2.50;;;2.00;;
74177;SDS011;62540;48.456;-4.456;2023-06-14T06:02:45;2.25;;;2.25;;
74177;SDS011;62540;48.456;-4.456;2023-06-14T06:05:12;2.75;;;2.75;;
74177;SDS011;62540;48.456;-4.456;2023-06-14T06:07:38;2.00;;;2.00;;
74177;SDS011;62540;48.456;-4.456;2023-06-14T06:10:10;2.00;;;2.00;;
74177;SDS011;62540;48.456;-4.456;2023-06-14T06:12:36;3.00;;;2.50;;
74177;SDS011;62540;48.456;-4.456;2023-06-14T06:15:02;2.00;;;2.00;;
74177;SDS011;62540;48.456;-4.456;2023-06-14T06:17:28;3.75;;;3.75;;
74177;SDS011;62540;48.456;-4.456;2023-06-14T06:19:53;2.00;;;2.00;;
74177;SDS011;62540;48.456;-4.456;2023-06-14T06:22:19;4.00;;;4.00;;
74177;SDS011;62540;48.456;-4.456;2023-06-14T06:24:44;4.00;;;3.00;;
74177;SDS011;62540;48.456;-4.456;2023-06-14T06:27:09;4.00;;;3.25;;
74177;SDS011;62540;48.456;-4.456;2023-06-14T06:29:35;1.00;;;1.00;;
74177;SDS011;62540;48.456;-4.456;2023-06-14T06:32:01;2.00;;;2.00;;
74177;SDS011;62540;48.456;-4.456;2023-06-14T06:34:27;2.75;;;2.75;;
74177;SDS011;62540;48.456;-4.456;2023-06-14T06:36:53;2.50;;;2.00;;
74177;SDS011;62540;48.456;-4.456;2023-06-14T06:39:20;1.75;;;1.75;;
74177;SDS011;62540;48.456;-4.456;2023-06-14T06:41:45;3.00;;;3.00;;
74177;SDS011;62540;48.456;-4.456;2023-06-14T06:44:11;4.00;;;3.00;;
74177;SDS011;62540;48.456;-4.456;2023-06-14T06:46:37;3.00;;;3.00;;
74177;SDS011;62540;48.456;-4.456;2023-06-14T06:49:06;4.50;;;3.50;;
74177;SDS011;62540;48.456;-4.456;2023-06-14T06:51:34;4.25;;;3.00;;
74177;SDS011;62540;48.456;-4.456;2023-06-14T06:54:01;3.50;;;3.00;;
74177;SDS011;62540;48.456;-4.456;2023-06-14T06:56:27;3.00;;;3.00;;
74177;SDS011;62540;48.456;-4.456;2023-06-14T06:58:53;5.00;;;4.50;;
74177;SDS011;62540;48.456;-4.456;2023-06-14T07:01:18;5.50;;;5.00;;
74177;SDS011;62540;48.456;-4.456;2023-06-14T07:03:44;2.75;;;2.75;;
74177;SDS011;62540;48.456;-4.456;2023-06-14T07:06:10;3.25;;;3.00;;
74177;SDS011;62540;48.456;-4.456;2023-06-14T07:08:36;2.50;;;2.50;;
74177;SDS011;62540;48.456;-4.456;2023-06-14T07:11:03;4.00;;;3.00;;
74177;SDS011;62540;48.456;-4.456;2023-06-14T07:13:29;4.00;;;3.50;;
74177;SDS011;62540;48.456;-4.456;2023-06-14T07:15:55;4.75;;;4.00;;
74177;SDS011;62540;48.456;-4.456;2023-06-14T07:18:23;8.75;;;5.00;;
74177;SDS011;62540;48.456;-4.456;2023-06-14T07:20:49;6.25;;;4.00;;
74177;SDS011;62540;48.456;-4.456;2023-06-14T07:23:15;3.00;;;3.00;;
74177;SDS011;62540;48.456;-4.456;2023-06-14T07:25:40;5.25;;;5.25;;
74177;SDS011;62540;48.456;-4.456;2023-06-14T07:28:06;5.50;;;4.50;;
74177;SDS011;62540;48.456;-4.456;2023-06-14T07:30:32;5.50;;;3.75;;
74177;SDS011;62540;48.456;-4.456;2023-06-14T07:32:57;4.25;;;4.25;;
74177;SDS011;62540;48.456;-4.456;2023-06-14T07:35:23;5.00;;;5.00;;
74177;SDS011;62540;48.456;-4.456;2023-06-14T07:37:48;6.00;;;4.50;;
74177;SDS011;62540;48.456;-4.456;2023-06-14T07:40:14;7.00;;;5.00;;
74177;SDS011;62540;48.456;-4.456;2023-06-14T07:42:40;4.25;;;3.50;;
74177;SDS011;62540;48.456;-4.456;2023-06-14T07:45:06;3.75;;;3.75;;
74177;SDS011;62540;48.456;-4.456;2023-06-14T07:47:32;4.50;;;4.50;;
74177;SDS011;62540;48.456;-4.456;2023-06-14T07:49:57;6.25;;;5.25;;
74177;SDS011;62540;48.456;-4.456;2023-06-14T07:52:23;4.00;;;4.00;;
74177;SDS011;62540;48.456;-4.456;2023-06-14T07:54:49;4.75;;;4.50;;
74177;SDS011;62540;48.456;-4.456;2023-06-14T07:57:14;6.00;;;5.00;;
74177;SDS011;62540;48.456;-4.456;2023-06-14T07:59:39;4.75;;;4.75;;
74177;SDS011;62540;48.456;-4.456;2023-06-14T08:02:05;6.50;;;5.00;;
74177;SDS011;62540;48.456;-4.456;2023-06-14T08:04:31;5.25;;;5.25;;
74177;SDS011;62540;48.456;-4.456;2023-06-14T08:06:58;5.75;;;5.50;;
74177;SDS011;62540;48.456;-4.456;2023-06-14T08:09:24;6.50;;;5.50;;
74177;SDS011;62540;48.456;-4.456;2023-06-14T08:11:50;7.50;;;6.25;;
74177;SDS011;62540;48.456;-4.456;2023-06-14T08:14:16;6.00;;;5.00;;
74177;SDS011;62540;48.456;-4.456;2023-06-14T08:16:41;10.50;;;5.00;;
74177;SDS011;62540;48.456;-4.456;2023-06-14T08:19:07;6.25;;;6.00;;
74177;SDS011;62540;48.456;-4.456;2023-06-14T08:21:32;6.75;;;6.00;;
74177;SDS011;62540;48.456;-4.456;2023-06-14T08:23:58;6.50;;;6.00;;
74177;SDS011;62540;48.456;-4.456;2023-06-14T08:26:25;6.75;;;6.75;;
74177;SDS011;62540;48.456;-4.456;2023-06-14T08:28:54;6.00;;;5.00;;
74177;SDS011;62540;48.456;-4.456;2023-06-14T08:31:20;5.25;;;5.00;;
74177;SDS011;62540;48.456;-4.456;2023-06-14T08:33:46;6.25;;;5.25;;
74177;SDS011;62540;48.456;-4.456;2023-06-14T08:36:11;7.00;;;6.00;;
74177;SDS011;62540;48.456;-4.456;2023-06-14T08:38:37;6.25;;;5.25;;
74177;SDS011;62540;48.456;-4.456;2023-06-14T08:41:03;5.25;;;5.00;;
74177;SDS011;62540;48.456;-4.456;2023-06-14T08:43:30;5.75;;;5.75;;
74177;SDS011;62540;48.456;-4.456;2023-06-14T08:45:58;8.50;;;7.00;;
74177;SDS011;62540;48.456;-4.456;2023-06-14T08:48:29;6.00;;;6.00;;
74177;SDS011;62540;48.456;-4.456;2023-06-14T08:50:59;8.25;;;7.75;;
74177;SDS011;62540;48.456;-4.456;2023-06-14T08:53:31;6.50;;;6.50;;
74177;SDS011;62540;48.456;-4.456;2023-06-14T08:55:59;8.75;;;7.25;;
74177;SDS011;62540;48.456;-4.456;2023-06-14T08:58:27;9.25;;;9.25;;
74177;SDS011;62540;48.456;-4.456;2023-06-14T09:00:57;6.50;;;6.00;;
74177;SDS011;62540;48.456;-4.456;2023-06-14T09:03:23;9.25;;;7.50;;
74177;SDS011;62540;48.456;-4.456;2023-06-14T09:05:57;7.50;;;7.25;;
74177;SDS011;62540;48.456;-4.456;2023-06-14T09:08:28;7.75;;;7.50;;
74177;SDS011;62540;48.456;-4.456;2023-06-14T09:10:57;8.75;;;7.00;;
74177;SDS011;62540;48.456;-4.456;2023-06-14T09:13:22;9.50;;;7.50;;
74177;SDS011;62540;48.456;-4.456;2023-06-14T09:15:48;8.25;;;8.25;;
74177;SDS011;62540;48.456;-4.456;2023-06-14T09:18:13;9.50;;;8.50;;
74177;SDS011;62540;48.456;-4.456;2023-06-14T09:20:39;9.00;;;8.00;;
74177;SDS011;62540;48.456;-4.456;2023-06-14T09:23:06;9.50;;;8.50;;
74177;SDS011;62540;48.456;-4.456;2023-06-14T09:25:32;9.75;;;8.25;;
74177;SDS011;62540;48.456;-4.456;2023-06-14T09:27:57;10.75;;;9.75;;
74177;SDS011;62540;48.456;-4.456;2023-06-14T09:30:23;11.00;;;10.25;;
74177;SDS011;62540;48.456;-4.456;2023-06-14T09:32:48;10.25;;;9.75;;
74177;SDS011;62540;48.456;-4.456;2023-06-14T09:35:16;9.50;;;9.00;;
74177;SDS011;62540;48.456;-4.456;2023-06-14T09:37:42;9.25;;;9.00;;
74177;SDS011;62540;48.456;-4.456;2023-06-14T09:40:08;11.50;;;11.25;;
74177;SDS011;62540;48.456;-4.456;2023-06-14T09:42:34;11.75;;;11.75;;
74177;SDS011;62540;48.456;-4.456;2023-06-14T09:45:02;10.75;;;9.25;;
74177;SDS011;62540;48.456;-4.456;2023-06-14T09:47:28;11.25;;;11.00;;
74177;SDS011;62540;48.456;-4.456;2023-06-14T09:49:54;11.50;;;9.00;;
74177;SDS011;62540;48.456;-4.456;2023-06-14T09:52:20;11.00;;;10.00;;
74177;SDS011;62540;48.456;-4.456;2023-06-14T09:54:48;9.50;;;7.75;;
74177;SDS011;62540;48.456;-4.456;2023-06-14T09:57:21;12.50;;;11.50;;
74177;SDS011;62540;48.456;-4.456;2023-06-14T09:59:47;12.50;;;10.00;;
74177;SDS011;62540;48.456;-4.456;2023-06-14T10:02:27;9.25;;;9.00;;
74177;SDS011;62540;48.456;-4.456;2023-06-14T10:05:03;11.50;;;9.50;;
74177;SDS011;62540;48.456;-4.456;2023-06-14T10:10:21;11.75;;;10.25;;
74177;SDS011;62540;48.456;-4.456;2023-06-14T10:12:47;10.50;;;10.00;;
74177;SDS011;62540;48.456;-4.456;2023-06-14T10:15:26;13.00;;;11.25;;
74177;SDS011;62540;48.456;-4.456;2023-06-14T10:17:57;11.25;;;10.25;;
74177;SDS011;62540;48.456;-4.456;2023-06-14T10:23:33;9.50;;;9.50;;
74177;SDS011;62540;48.456;-4.456;2023-06-14T10:26:05;11.50;;;10.25;;
74177;SDS011;62540;48.456;-4.456;2023-06-14T10:28:30;11.50;;;10.75;;
74177;SDS011;62540;48.456;-4.456;2023-06-14T10:31:07;10.25;;;9.75;;
74177;SDS011;62540;48.456;-4.456;2023-06-14T10:33:34;10.25;;;9.00;;
74177;SDS011;62540;48.456;-4.456;2023-06-14T10:41:50;18.00;;;17.00;;
74177;SDS011;62540;48.456;-4.456;2023-06-14T10:46:48;13.00;;;10.75;;
74177;SDS011;62540;48.456;-4.456;2023-06-14T10:49:18;15.75;;;14.75;;
74177;SDS011;62540;48.456;-4.456;2023-06-14T10:51:44;15.25;;;14.50;;
74177;SDS011;62540;48.456;-4.456;2023-06-14T10:54:20;14.50;;;13.50;;
74177;SDS011;62540;48.456;-4.456;2023-06-14T10:56:49;16.75;;;14.25;;
74177;SDS011;62540;48.456;-4.456;2023-06-14T10:59:19;16.00;;;13.75;;
74177;SDS011;62540;48.456;-4.456;2023-06-14T11:04:47;16.25;;;14.00;;
74177;SDS011;62540;48.456;-4.456;2023-06-14T11:07:41;13.25;;;10.50;;
74177;SDS011;62540;48.456;-4.456;2023-06-14T11:12:41;13.50;;;11.25;;
74177;SDS011;62540;48.456;-4.456;2023-06-14T11:15:07;14.00;;;13.00;;
74177;SDS011;62540;48.456;-4.456;2023-06-14T11:17:33;12.25;;;11.25;;
74177;SDS011;62540;48.456;-4.456;2023-06-14T11:20:08;20.00;;;17.00;;
74177;SDS011;62540;48.456;-4.456;2023-06-14T11:22:41;17.25;;;17.00;;
74177;SDS011;62540;48.456;-4.456;2023-06-14T11:25:10;15.25;;;14.25;;
74177;SDS011;62540;48.456;-4.456;2023-06-14T11:27:36;19.50;;;16.75;;
74177;SDS011;62540;48.456;-4.456;2023-06-14T11:30:02;18.75;;;17.75;;
74177;SDS011;62540;48.456;-4.456;2023-06-14T11:32:28;17.00;;;16.00;;
74177;SDS011;62540;48.456;-4.456;2023-06-14T11:34:56;16.25;;;14.75;;
74177;SDS011;62540;48.456;-4.456;2023-06-14T11:37:23;14.50;;;13.50;;
74177;SDS011;62540;48.456;-4.456;2023-06-14T11:39:51;17.00;;;15.75;;
74177;SDS011;62540;48.456;-4.456;2023-06-14T11:42:16;17.75;;;15.25;;
74177;SDS011;62540;48.456;-4.456;2023-06-14T11:44:41;17.50;;;16.50;;
74177;SDS011;62540;48.456;-4.456;2023-06-14T11:47:07;21.75;;;19.50;;
74177;SDS011;62540;48.456;-4.456;2023-06-14T11:49:36;19.00;;;16.50;;
74177;SDS011;62540;48.456;-4.456;2023-06-14T11:52:01;14.75;;;13.25;;
74177;SDS011;62540;48.456;-4.456;2023-06-14T11:54:27;16.50;;;15.25;;
74177;SDS011;62540;48.456;-4.456;2023-06-14T11:56:53;13.50;;;13.50;;
74177;SDS011;62540;48.456;-4.456;2023-06-14T11:59:18;16.75;;;14.75;;
74177;SDS011;62540;48.456;-4.456;2023-06-14T12:01:45;13.50;;;12.50;;
74177;SDS011;62540;48.456;-4.456;2023-06-14T12:04:12;14.00;;;14.00;;
74177;SDS011;62540;48.456;-4.456;2023-06-14T12:06:37;14.50;;;14.00;;
74177;SDS011;62540;48.456;-4.456;2023-06-14T12:09:04;14.00;;;13.25;;
74177;SDS011;62540;48.456;-4.456;2023-06-14T12:11:43;15.75;;;14.75;;
74177;SDS011;62540;48.456;-4.456;2023-06-14T12:14:08;14.25;;;13.25;;
74177;SDS011;62540;48.456;-4.456;2023-06-14T12:16:35;11.50;;;11.50;;
74177;SDS011;62540;48.456;-4.456;2023-06-14T12:19:15;16.00;;;13.25;;
74177;SDS011;62540;48.456;-4.456;2023-06-14T12:21:42;15.50;;;12.50;;
74177;SDS011;62540;48.456;-4.456;2023-06-14T12:24:09;13.00;;;11.25;;
74177;SDS011;62540;48.456;-4.456;2023-06-14T12:26:40;14.25;;;12.50;;
74177;SDS011;62540;48.456;-4.456;2023-06-14T12:29:06;12.50;;;11.75;;
74177;SDS011;62540;48.456;-4.456;2023-06-14T12:31:32;15.25;;;14.25;;
74177;SDS011;62540;48.456;-4.456;2023-06-14T12:33:58;12.75;;;10.75;;
74177;SDS011;62540;48.456;-4.456;2023-06-14T12:36:24;12.00;;;12.00;;
74177;SDS011;62540;48.456;-4.456;2023-06-14T12:38:50;14.00;;;13.00;;
74177;SDS011;62540;48.456;-4.456;2023-06-14T12:41:18;13.25;;;11.50;;
74177;SDS011;62540;48.456;-4.456;2023-06-14T12:43:46;17.25;;;16.25;;
74177;SDS011;62540;48.456;-4.456;2023-06-14T12:46:11;13.75;;;11.75;;
74177;SDS011;62540;48.456;-4.456;2023-06-14T12:48:36;13.25;;;13.25;;
74177;SDS011;62540;48.456;-4.456;2023-06-14T12:51:02;12.25;;;11.75;;
74177;SDS011;62540;48.456;-4.456;2023-06-14T12:53:27;13.50;;;11.50;;
74177;SDS011;62540;48.456;-4.456;2023-06-14T12:55:53;14.00;;;12.50;;
74177;SDS011;62540;48.456;-4.456;2023-06-14T12:58:18;15.25;;;14.00;;
74177;SDS011;62540;48.456;-4.456;2023-06-14T13:00:44;13.00;;;12.00;;
74177;SDS011;62540;48.456;-4.456;2023-06-14T13:03:10;13.25;;;12.25;;
74177;SDS011;62540;48.456;-4.456;2023-06-14T13:05:36;17.75;;;14.25;;
74177;SDS011;62540;48.456;-4.456;2023-06-14T13:08:02;14.25;;;12.00;;
74177;SDS011;62540;48.456;-4.456;2023-06-14T13:10:28;14.25;;;12.50;;
74177;SDS011;62540;48.456;-4.456;2023-06-14T13:12:53;13.00;;;11.50;;
74177;SDS011;62540;48.456;-4.456;2023-06-14T13:15:18;17.50;;;16.50;;
74177;SDS011;62540;48.456;-4.456;2023-06-14T13:17:44;13.50;;;12.25;;
74177;SDS011;62540;48.456;-4.456;2023-06-14T13:20:13;15.75;;;14.75;;
74177;SDS011;62540;48.456;-4.456;2023-06-14T13:22:39;14.50;;;14.25;;
74177;SDS011;62540;48.456;-4.456;2023-06-14T13:25:04;16.50;;;15.75;;
74177;SDS011;62540;48.456;-4.456;2023-06-14T13:27:31;14.50;;;14.50;;
74177;SDS011;62540;48.456;-4.456;2023-06-14T13:29:56;16.50;;;16.00;;
74177;SDS011;62540;48.456;-4.456;2023-06-14T13:32:22;18.75;;;15.50;;
74177;SDS011;62540;48.456;-4.456;2023-06-14T13:34:48;15.25;;;13.00;;
74177;SDS011;62540;48.456;-4.456;2023-06-14T13:37:14;15.75;;;14.00;;
74177;SDS011;62540;48.456;-4.456;2023-06-14T13:39:39;16.25;;;15.25;;
74177;SDS011;62540;48.456;-4.456;2023-06-14T13:42:05;14.00;;;13.50;;
74177;SDS011;62540;48.456;-4.456;2023-06-14T13:44:30;20.25;;;16.50;;
74177;SDS011;62540;48.456;-4.456;2023-06-14T13:46:56;15.00;;;15.00;;
74177;SDS011;62540;48.456;-4.456;2023-06-14T13:49:21;15.75;;;14.00;;
74177;SDS011;62540;48.456;-4.456;2023-06-14T13:51:47;18.75;;;15.00;;
74177;SDS011;62540;48.456;-4.456;2023-06-14T13:54:13;16.75;;;13.50;;
74177;SDS011;62540;48.456;-4.456;2023-06-14T13:56:41;14.25;;;14.25;;
74177;SDS011;62540;48.456;-4.456;2023-06-14T13:59:07;17.00;;;15.75;;
74177;SDS011;62540;48.456;-4.456;2023-06-14T14:01:33;16.75;;;14.75;;
74177;SDS011;62540;48.456;-4.456;2023-06-14T14:03:58;17.50;;;16.50;;
74177;SDS011;62540;48.456;-4.456;2023-06-14T14:06:25;13.00;;;12.25;;
74177;SDS011;62540;48.456;-4.456;2023-06-14T14:08:51;15.50;;;14.00;;
74177;SDS011;62540;48.456;-4.456;2023-06-14T14:11:17;18.25;;;17.75;;
74177;SDS011;62540;48.456;-4.456;2023-06-14T14:13:43;16.25;;;14.50;;
74177;SDS011;62540;48.456;-4.456;2023-06-14T14:16:09;14.00;;;13.00;;
74177;SDS011;62540;48.456;-4.456;2023-06-14T14:18:35;17.50;;;15.00;;
74177;SDS011;62540;48.456;-4.456;2023-06-14T14:21:02;17.50;;;15.25;;
74177;SDS011;62540;48.456;-4.456;2023-06-14T14:23:27;14.75;;;14.00;;
74177;SDS011;62540;48.456;-4.456;2023-06-14T14:25:53;14.75;;;14.00;;
74177;SDS011;62540;48.456;-4.456;2023-06-14T14:28:18;13.50;;;12.00;;
74177;SDS011;62540;48.456;-4.456;2023-06-14T14:30:45;17.25;;;16.75;;
74177;SDS011;62540;48.456;-4.456;2023-06-14T14:33:12;15.50;;;14.50;;
74177;SDS011;62540;48.456;-4.456;2023-06-14T14:35:41;13.25;;;11.75;;
74177;SDS011;62540;48.456;-4.456;2023-06-14T14:38:07;13.25;;;13.25;;
74177;SDS011;62540;48.456;-4.456;2023-06-14T14:40:33;13.50;;;13.00;;
74177;SDS011;62540;48.456;-4.456;2023-06-14T14:42:58;16.75;;;16.00;;